createdAt,value
2023-04-15T00:00:55.912Z,2.05
2023-04-15T00:03:46.850Z,2.53
2023-04-15T00:07:16.015Z,2.67
2023-04-15T00:10:08.369Z,2.05
2023-04-15T00:20:25.405Z,3.50
2023-04-15T00:24:01.863Z,2.03
2023-04-15T00:27:32.350Z,1.98
2023-04-15T00:34:22.914Z,1.85
2023-04-15T00:37:18.533Z,2.67
2023-04-15T00:40:31.141Z,4.22
2023-04-15T00:44:06.350Z,3.08
2023-04-15T00:47:32.138Z,1.92
2023-04-15T00:50:45.257Z,1.08
2023-04-15T00:58:16.604Z,1.88
2023-04-15T01:01:38.684Z,2.38
2023-04-15T01:04:37.842Z,3.22
2023-04-15T01:07:32.887Z,1.42
2023-04-15T01:11:06.452Z,2.83
2023-04-15T01:13:59.555Z,3.30
2023-04-15T01:16:51.468Z,2.03
2023-04-15T01:19:41.971Z,3.05
2023-04-15T01:22:46.022Z,1.50
2023-04-15T01:25:33.772Z,2.22
2023-04-15T01:28:20.750Z,0.80
2023-04-15T01:31:10.934Z,3.13
2023-04-15T01:34:07.428Z,1.38
2023-04-15T01:37:11.529Z,1.50
2023-04-15T01:40:31.324Z,2.33
2023-04-15T01:43:28.521Z,1.00
2023-04-15T01:46:18.034Z,3.67
2023-04-15T01:49:04.785Z,2.08
2023-04-15T01:51:55.147Z,2.38
2023-04-15T01:54:46.250Z,3.30
2023-04-15T01:57:36.210Z,1.42
2023-04-15T02:00:27.616Z,3.35
2023-04-15T02:03:14.466Z,3.53
2023-04-15T02:06:06.168Z,1.58
2023-04-15T02:09:19.428Z,2.22
2023-04-15T02:12:27.679Z,3.55
2023-04-15T02:15:28.454Z,3.63
2023-04-15T02:18:53.448Z,2.40
2023-04-15T02:22:03.684Z,2.95
2023-04-15T02:24:59.855Z,4.65
2023-04-15T02:27:54.839Z,0.82
2023-04-15T02:30:56.552Z,3.47
2023-04-15T02:34:12.248Z,3.97
2023-04-15T02:45:12.387Z,0.85
2023-04-15T02:48:08.960Z,1.67
2023-04-15T02:51:24.602Z,2.38
2023-04-15T02:54:27.279Z,2.63
2023-04-15T02:57:22.874Z,2.67
2023-04-15T03:00:14.797Z,2.55
2023-04-15T03:03:17.249Z,3.22
2023-04-15T03:06:09.266Z,1.83
2023-04-15T03:08:57.257Z,3.25
2023-04-15T03:11:53.775Z,3.33
2023-04-15T03:14:48.122Z,1.45
2023-04-15T03:18:02.006Z,1.73
2023-04-15T03:24:20.216Z,3.28
2023-04-15T03:27:11.017Z,2.40
2023-04-15T03:30:09.001Z,6.30
2023-04-15T03:33:05.421Z,2.53
2023-04-15T03:36:22.436Z,3.47
2023-04-15T03:39:24.852Z,3.13
2023-04-15T03:42:56.246Z,1.80
2023-04-15T03:46:11.278Z,1.40
2023-04-15T03:52:54.378Z,3.72
2023-04-15T03:55:47.194Z,2.35
2023-04-15T03:59:17.879Z,2.97
2023-04-15T04:03:10.030Z,3.45
2023-04-15T04:05:57.444Z,2.15
2023-04-15T04:08:51.294Z,1.55
2023-04-15T04:11:43.561Z,2.03
2023-04-15T04:14:33.323Z,1.90
2023-04-15T04:17:26.398Z,3.22
2023-04-15T04:20:22.976Z,1.50
2023-04-15T04:23:10.053Z,2.35
2023-04-15T04:25:56.717Z,6.25
2023-04-15T04:28:57.683Z,4.88
2023-04-15T04:31:53.752Z,9.10
2023-04-15T04:34:50.546Z,9.85
2023-04-15T04:38:10.964Z,9.45
2023-04-15T04:41:41.732Z,9.18
2023-04-15T04:52:30.677Z,6.28
2023-04-15T04:56:27.050Z,4.82
2023-04-15T04:59:25.778Z,2.33
2023-04-15T05:05:21.851Z,1.77
2023-04-15T05:08:11.528Z,1.35
2023-04-15T05:11:04.346Z,2.20
2023-04-15T05:13:54.128Z,1.65
2023-04-15T05:16:40.925Z,2.08
2023-04-15T05:19:30.316Z,2.72
2023-04-15T05:22:21.096Z,1.88
2023-04-15T05:25:14.202Z,1.38
2023-04-15T05:28:04.028Z,1.70
2023-04-15T05:30:50.812Z,1.63
2023-04-15T05:33:37.566Z,2.25
2023-04-15T05:36:30.250Z,1.67
2023-04-15T05:39:29.970Z,1.75
2023-04-15T05:42:20.851Z,2.47
2023-04-15T05:45:23.204Z,2.45
2023-04-15T05:48:27.725Z,4.38
2023-04-15T05:51:23.170Z,1.88
2023-04-15T05:54:35.619Z,3.50
2023-04-15T05:57:28.110Z,3.55
2023-04-15T06:03:38.911Z,2.33
2023-04-15T06:06:33.825Z,3.55
2023-04-15T06:09:39.199Z,2.75
2023-04-15T06:17:11.023Z,2.95
2023-04-15T06:28:18.073Z,2.75
2023-04-15T06:35:38.445Z,2.40
2023-04-15T06:53:45.382Z,3.08
2023-04-15T06:58:08.110Z,4.40
2023-04-15T07:10:31.960Z,4.22
2023-04-15T07:13:35.948Z,7.35
2023-04-15T07:16:30.733Z,6.63
2023-04-15T07:19:48.105Z,3.90
2023-04-15T07:22:49.172Z,6.28
2023-04-15T07:26:32.315Z,6.82
2023-04-15T07:29:30.484Z,9.90
2023-04-15T07:32:48.650Z,6.32
2023-04-15T07:39:33.336Z,12.85
2023-04-15T07:42:35.413Z,6.93
2023-04-15T07:50:41.558Z,8.77
2023-04-15T07:54:47.666Z,3.42
2023-04-15T07:58:25.120Z,14.70
2023-04-15T08:02:14.784Z,11.38
2023-04-15T08:05:08.538Z,6.18
2023-04-15T08:08:03.620Z,14.68
2023-04-15T08:10:52.594Z,9.95
2023-04-15T08:14:11.640Z,10.57
2023-04-15T08:17:04.447Z,8.77
2023-04-15T08:20:01.578Z,4.15
2023-04-15T08:23:44.826Z,6.00
2023-04-15T08:30:42.060Z,5.80
2023-04-15T08:33:35.874Z,3.72
2023-04-15T08:36:54.549Z,40.05
2023-04-15T08:43:57.370Z,14.57
2023-04-15T08:46:47.925Z,5.97
2023-04-15T08:49:41.389Z,6.97
2023-04-15T08:52:27.949Z,12.15
2023-04-15T08:55:14.073Z,4.30
2023-04-15T08:58:02.534Z,6.97
2023-04-15T09:00:49.177Z,5.63
2023-04-15T09:03:49.574Z,7.25
2023-04-15T09:08:08.891Z,14.43
2023-04-15T09:37:08.332Z,5.97
2023-04-15T10:30:43.481Z,5.43
2023-04-15T10:34:57.701Z,4.60
2023-04-15T10:39:15.697Z,9.25
2023-04-15T10:42:21.773Z,7.65
2023-04-15T10:45:46.628Z,11.95
2023-04-15T10:49:30.994Z,9.27
2023-04-15T10:52:37.468Z,12.75
2023-04-15T10:55:31.127Z,8.38
2023-04-15T10:59:15.498Z,6.40
2023-04-15T11:02:16.658Z,2.78
2023-04-15T11:05:13.762Z,5.63
2023-04-15T11:08:31.545Z,3.15
2023-04-15T11:18:55.937Z,3.75
2023-04-15T11:25:17.253Z,7.15
2023-04-15T11:28:22.902Z,6.13
2023-04-15T11:31:41.931Z,11.23
2023-04-15T11:38:34.221Z,6.53
2023-04-15T11:42:02.686Z,5.40
2023-04-15T11:45:42.902Z,6.32
2023-04-15T11:48:48.061Z,13.13
2023-04-15T11:54:32.209Z,7.13
2023-04-15T11:58:24.208Z,4.38
2023-04-15T12:00:54.644Z,6.18
2023-04-15T12:03:47.232Z,6.05
2023-04-15T12:09:21.903Z,2.70
2023-04-15T12:12:08.047Z,3.92
2023-04-15T12:15:00.979Z,6.50
2023-04-15T12:17:51.031Z,3.60
2023-04-15T12:20:45.630Z,4.43
2023-04-15T12:23:31.888Z,5.72
2023-04-15T12:26:19.519Z,4.43
2023-04-15T12:29:08.459Z,5.18
2023-04-15T12:32:04.161Z,5.18
2023-04-15T12:34:51.100Z,6.13
2023-04-15T12:37:38.445Z,6.47
2023-04-15T12:40:25.045Z,8.30
2023-04-15T12:43:11.685Z,3.97
2023-04-15T12:45:58.051Z,4.00
2023-04-15T12:48:44.754Z,4.63
2023-04-15T12:51:32.025Z,7.40
2023-04-15T12:54:19.325Z,8.13
2023-04-15T12:57:07.396Z,8.32
2023-04-15T12:59:54.532Z,5.43
2023-04-15T13:02:40.855Z,4.50
2023-04-15T13:05:27.411Z,7.15
2023-04-15T13:08:14.169Z,7.10
2023-04-15T13:11:01.128Z,5.78
2023-04-15T13:13:48.161Z,7.60
2023-04-15T13:16:38.375Z,11.18
2023-04-15T13:19:25.139Z,13.18
2023-04-15T13:22:11.934Z,9.32
2023-04-15T13:24:59.289Z,5.32
2023-04-15T13:27:45.640Z,5.60
2023-04-15T13:30:36.016Z,4.55
2023-04-15T13:33:22.644Z,8.95
2023-04-15T13:36:08.948Z,7.82
2023-04-15T13:38:55.778Z,11.60
2023-04-15T13:41:45.475Z,5.57
2023-04-15T13:44:39.336Z,6.40
2023-04-15T13:47:29.459Z,8.55
2023-04-15T13:50:21.756Z,6.88
2023-04-15T13:53:11.545Z,3.47
2023-04-15T13:55:58.156Z,2.65
2023-04-15T13:58:44.725Z,4.18
2023-04-15T14:01:36.235Z,8.23
2023-04-15T14:04:23.361Z,12.70
2023-04-15T14:07:10.075Z,14.85
2023-04-15T14:09:58.689Z,8.25
2023-04-15T14:12:45.448Z,5.47
2023-04-15T14:15:44.094Z,7.93
2023-04-15T14:18:33.727Z,3.95
2023-04-15T14:21:20.163Z,4.85
2023-04-15T14:24:07.236Z,11.85
2023-04-15T14:26:54.502Z,16.88
2023-04-15T14:29:40.478Z,4.07
2023-04-15T14:32:27.406Z,13.05
2023-04-15T14:35:27.106Z,12.48
2023-04-15T14:38:26.033Z,11.23
2023-04-15T14:41:12.967Z,8.82
2023-04-15T15:10:14.602Z,3.28
2023-04-15T15:13:00.898Z,4.70
2023-04-15T15:15:50.626Z,4.75
2023-04-15T15:18:40.459Z,8.82
2023-04-15T15:21:27.179Z,5.15
2023-04-15T15:24:13.788Z,5.05
2023-04-15T15:27:00.031Z,9.57
2023-04-15T15:34:47.978Z,7.22
2023-04-15T15:45:23.446Z,8.80
2023-04-15T15:48:09.871Z,5.07
2023-04-15T15:50:56.236Z,6.40
2023-04-15T16:05:27.471Z,9.75
2023-04-15T16:08:13.916Z,4.53
2023-04-15T16:11:00.452Z,6.25
2023-04-15T16:13:46.910Z,6.20
2023-04-15T16:16:33.300Z,8.98
2023-04-15T16:19:21.148Z,6.15
2023-04-15T16:22:07.377Z,7.05
2023-04-15T16:24:54.735Z,6.78
2023-04-15T16:27:57.213Z,3.05
2023-04-15T16:30:47.185Z,6.68
2023-04-15T16:33:33.415Z,7.32
2023-04-15T16:36:19.855Z,8.73
2023-04-15T16:39:06.561Z,9.88
2023-04-15T16:41:59.714Z,8.90
2023-04-15T16:44:48.479Z,9.10
2023-04-15T16:47:34.597Z,10.43
2023-04-15T16:50:20.877Z,13.07
2023-04-15T16:53:07.110Z,17.00
2023-04-15T16:55:54.824Z,10.13
2023-04-15T16:58:41.123Z,11.10
2023-04-15T17:01:27.594Z,13.38
2023-04-15T17:04:13.954Z,16.90
2023-04-15T17:07:00.258Z,23.40
2023-04-15T17:09:48.678Z,16.75
2023-04-15T17:12:34.817Z,14.77
2023-04-15T17:15:24.173Z,20.45
2023-04-15T17:18:12.643Z,16.77
2023-04-15T17:20:58.755Z,20.95
2023-04-15T17:23:45.150Z,18.63
2023-04-15T17:26:31.922Z,14.80
2023-04-15T17:29:18.057Z,15.50
2023-04-15T17:32:04.216Z,17.75
2023-04-15T17:34:51.499Z,10.38
2023-04-15T17:37:37.725Z,15.00
2023-04-15T17:40:31.683Z,10.30
2023-04-15T17:43:18.089Z,16.00
2023-04-15T17:46:05.430Z,10.43
2023-04-15T17:48:51.448Z,9.85
2023-04-15T17:51:37.502Z,7.50
2023-04-15T17:54:29.797Z,10.25
2023-04-15T17:57:15.681Z,13.52
2023-04-15T18:00:03.369Z,16.35
2023-04-15T18:03:09.591Z,13.45
2023-04-15T18:05:56.376Z,13.73
2023-04-15T18:08:47.410Z,17.30
2023-04-15T18:11:35.053Z,16.02
2023-04-15T18:14:33.370Z,21.58
2023-04-15T18:17:21.015Z,21.40
2023-04-15T18:20:07.819Z,18.35
2023-04-15T18:22:54.263Z,18.75
2023-04-15T18:25:44.474Z,18.20
2023-04-15T18:28:31.310Z,18.05
2023-04-15T18:31:21.473Z,17.27
2023-04-15T18:34:36.347Z,20.83
2023-04-15T18:37:43.988Z,18.08
2023-04-15T18:40:30.030Z,13.35
2023-04-15T18:43:16.533Z,14.70
2023-04-15T18:46:04.043Z,9.85
2023-04-15T18:48:50.619Z,12.48
2023-04-15T18:51:37.115Z,17.35
2023-04-15T18:54:23.743Z,19.08
2023-04-15T18:57:09.994Z,20.15
2023-04-15T18:59:55.887Z,14.43
2023-04-15T19:02:42.684Z,25.17
2023-04-15T19:05:30.282Z,20.58
2023-04-15T19:08:16.609Z,24.13
2023-04-15T19:11:02.819Z,16.98
2023-04-15T19:13:49.214Z,21.42
2023-04-15T19:16:35.691Z,17.42
2023-04-15T19:19:22.139Z,11.93
2023-04-15T19:22:08.853Z,10.55
2023-04-15T19:24:54.867Z,10.98
2023-04-15T19:27:43.031Z,9.30
2023-04-15T19:30:32.444Z,13.23
2023-04-15T19:33:21.120Z,8.40
2023-04-15T19:36:08.622Z,11.15
2023-04-15T19:39:03.857Z,14.93
2023-04-15T19:41:52.512Z,15.02
2023-04-15T19:44:43.120Z,25.38
2023-04-15T19:47:29.501Z,24.80
2023-04-15T19:50:17.045Z,24.00
2023-04-15T19:53:03.575Z,20.63
2023-04-15T19:55:51.054Z,21.73
2023-04-15T19:58:37.844Z,12.63
2023-04-15T20:01:24.536Z,20.20
2023-04-15T20:04:11.311Z,21.33
2023-04-15T20:07:12.343Z,22.90
2023-04-15T20:10:12.406Z,25.10
2023-04-15T20:12:59.905Z,22.95
2023-04-15T20:15:50.209Z,29.40
2023-04-15T20:18:38.577Z,18.00
2023-04-15T20:21:28.551Z,17.08
2023-04-15T20:24:15.003Z,13.48
2023-04-15T20:27:02.291Z,18.50
2023-04-15T20:29:56.735Z,11.30
2023-04-15T20:32:44.005Z,14.77
2023-04-15T20:35:31.378Z,11.15
2023-04-15T20:38:20.913Z,12.15
2023-04-15T20:41:07.552Z,10.88
2023-04-15T20:43:55.169Z,14.80
2023-04-15T20:46:45.119Z,13.27
2023-04-15T20:49:39.862Z,15.60
2023-04-15T20:52:38.198Z,14.35
2023-04-15T20:55:30.916Z,14.07
2023-04-15T20:58:17.744Z,17.75
2023-04-15T21:01:06.651Z,17.42
2023-04-15T21:03:59.902Z,11.63
2023-04-15T21:06:52.886Z,15.10
2023-04-15T21:09:41.563Z,19.23
2023-04-15T21:12:28.428Z,15.13
2023-04-15T21:15:26.045Z,13.52
2023-04-15T21:18:15.037Z,16.95
2023-04-15T21:21:08.557Z,15.15
2023-04-15T21:24:12.782Z,13.52
2023-04-15T21:27:03.418Z,10.43
2023-04-15T21:29:49.990Z,12.43
2023-04-15T21:32:38.126Z,16.33
2023-04-15T21:35:27.500Z,17.50
2023-04-15T21:38:15.026Z,22.23
2023-04-15T21:41:11.281Z,20.48
2023-04-15T21:43:57.958Z,18.70
2023-04-15T21:46:46.419Z,22.90
2023-04-15T21:49:32.895Z,15.25
2023-04-15T21:52:19.291Z,26.77
2023-04-15T21:55:08.434Z,22.73
2023-04-15T21:58:04.208Z,25.65
2023-04-15T22:00:52.481Z,25.05
2023-04-15T22:03:39.554Z,15.43
2023-04-15T22:06:27.358Z,23.08
2023-04-15T22:09:14.585Z,15.35
2023-04-15T22:12:01.321Z,14.05
2023-04-15T22:14:48.297Z,17.98
2023-04-15T22:17:44.067Z,13.90
2023-04-15T22:20:34.077Z,12.32
2023-04-15T22:23:21.116Z,14.90
2023-04-15T22:26:08.258Z,22.05
2023-04-15T22:28:55.207Z,15.35
2023-04-15T22:32:06.473Z,17.75
2023-04-15T22:34:55.696Z,19.20
2023-04-15T22:37:43.245Z,17.45
2023-04-15T22:40:31.508Z,15.40
2023-04-15T22:43:18.794Z,16.50
2023-04-15T22:46:05.526Z,14.70
2023-04-15T22:48:54.588Z,11.90
2023-04-15T22:51:41.272Z,20.38
2023-04-15T22:54:27.465Z,16.80
2023-04-15T22:57:14.026Z,18.20
2023-04-15T23:00:01.233Z,15.52
2023-04-15T23:02:47.594Z,17.45
2023-04-15T23:05:40.828Z,24.50
2023-04-15T23:08:33.094Z,18.35
2023-04-15T23:12:14.729Z,22.42
2023-04-15T23:15:34.410Z,12.57
2023-04-15T23:18:29.484Z,16.48
2023-04-15T23:21:34.918Z,15.70
2023-04-15T23:28:33.823Z,13.13
2023-04-15T23:32:08.034Z,13.50
2023-04-15T23:34:58.220Z,10.68
2023-04-15T23:37:45.846Z,12.20
2023-04-15T23:40:32.758Z,12.40
2023-04-15T23:43:22.284Z,10.82
2023-04-15T23:46:12.444Z,13.73
2023-04-15T23:49:02.239Z,13.50
2023-04-15T23:51:52.728Z,7.85
2023-04-15T23:54:46.488Z,7.00
2023-04-15T23:57:32.944Z,17.95
